sensor_id;sensor_type;location;lat;lon;timestamp;pressure;altitude;pressure_sealevel;temperature
15680;BMP180;15488;48.114;11.532;2022-07-12T00:01:40;96005.00;;;25.10
15680;BMP180;15488;48.114;11.532;2022-07-12T00:04:08;96004.00;;;25.10
15680;BMP180;15488;48.114;11.532;2022-07-12T00:06:36;96003.00;;;25.10
15680;BMP180;15488;48.114;11.532;2022-07-12T00:09:06;96009.00;;;25.00
15680;BMP180;15488;48.114;11.532;2022-07-12T00:11:34;96007.00;;;25.00
15680;BMP180;15488;48.114;11.532;2022-07-12T00:14:03;96007.00;;;25.00
15680;BMP180;15488;48.114;11.532;2022-07-12T00:16:30;96001.00;;;25.00
15680;BMP180;15488;48.114;11.532;2022-07-12T00:18:59;96007.00;;;25.00
15680;BMP180;15488;48.114;11.532;2022-07-12T00:21:26;96006.00;;;25.00
15680;BMP180;15488;48.114;11.532;2022-07-12T00:23:54;96002.00;;;24.90
15680;BMP180;15488;48.114;11.532;2022-07-12T00:26:21;96003.00;;;25.00
15680;BMP180;15488;48.114;11.532;2022-07-12T00:28:49;96007.00;;;24.90
15680;BMP180;15488;48.114;11.532;2022-07-12T00:31:17;96002.00;;;24.90
15680;BMP180;15488;48.114;11.532;2022-07-12T00:33:46;96002.00;;;24.90
15680;BMP180;15488;48.114;11.532;2022-07-12T00:36:15;96001.00;;;24.90
15680;BMP180;15488;48.114;11.532;2022-07-12T00:38:43;96002.00;;;24.90
15680;BMP180;15488;48.114;11.532;2022-07-12T00:41:11;96000.00;;;24.90
15680;BMP180;15488;48.114;11.532;2022-07-12T00:43:38;96003.00;;;24.80
15680;BMP180;15488;48.114;11.532;2022-07-12T00:46:06;96008.00;;;24.80
15680;BMP180;15488;48.114;11.532;2022-07-12T00:48:34;96010.00;;;24.80
15680;BMP180;15488;48.114;11.532;2022-07-12T00:51:03;96005.00;;;24.80
15680;BMP180;15488;48.114;11.532;2022-07-12T00:53:32;96003.00;;;24.70
15680;BMP180;15488;48.114;11.532;2022-07-12T00:55:59;96009.00;;;24.70
15680;BMP180;15488;48.114;11.532;2022-07-12T00:58:30;96008.00;;;24.70
15680;BMP180;15488;48.114;11.532;2022-07-12T01:00:57;96014.00;;;24.70
15680;BMP180;15488;48.114;11.532;2022-07-12T01:03:26;96005.00;;;24.70
15680;BMP180;15488;48.114;11.532;2022-07-12T01:05:54;96004.00;;;24.60
15680;BMP180;15488;48.114;11.532;2022-07-12T01:08:21;96006.00;;;24.60
15680;BMP180;15488;48.114;11.532;2022-07-12T01:10:52;96009.00;;;24.60
15680;BMP180;15488;48.114;11.532;2022-07-12T01:13:20;96013.00;;;24.60
15680;BMP180;15488;48.114;11.532;2022-07-12T01:15:48;96001.00;;;24.50
15680;BMP180;15488;48.114;11.532;2022-07-12T01:18:16;96007.00;;;24.50
15680;BMP180;15488;48.114;11.532;2022-07-12T01:20:45;96009.00;;;24.50
15680;BMP180;15488;48.114;11.532;2022-07-12T01:23:14;96013.00;;;24.40
15680;BMP180;15488;48.114;11.532;2022-07-12T01:25:42;96007.00;;;24.40
15680;BMP180;15488;48.114;11.532;2022-07-12T01:28:09;96008.00;;;24.40
15680;BMP180;15488;48.114;11.532;2022-07-12T01:30:37;96007.00;;;24.40
15680;BMP180;15488;48.114;11.532;2022-07-12T01:33:05;96005.00;;;24.30
15680;BMP180;15488;48.114;11.532;2022-07-12T01:35:33;96000.00;;;24.30
15680;BMP180;15488;48.114;11.532;2022-07-12T01:38:02;96006.00;;;24.20
15680;BMP180;15488;48.114;11.532;2022-07-12T01:40:31;96006.00;;;24.20
15680;BMP180;15488;48.114;11.532;2022-07-12T01:42:58;96008.00;;;24.10
15680;BMP180;15488;48.114;11.532;2022-07-12T01:45:26;96001.00;;;24.10
15680;BMP180;15488;48.114;11.532;2022-07-12T01:47:54;96002.00;;;24.10
15680;BMP180;15488;48.114;11.532;2022-07-12T01:50:25;95996.00;;;24.00
15680;BMP180;15488;48.114;11.532;2022-07-12T01:52:52;96004.00;;;24.00
15680;BMP180;15488;48.114;11.532;2022-07-12T01:55:20;96006.00;;;24.00
15680;BMP180;15488;48.114;11.532;2022-07-12T01:57:50;96010.00;;;24.00
15680;BMP180;15488;48.114;11.532;2022-07-12T02:00:19;96008.00;;;23.90
15680;BMP180;15488;48.114;11.532;2022-07-12T02:02:46;96009.00;;;23.90
15680;BMP180;15488;48.114;11.532;2022-07-12T02:05:14;96004.00;;;23.90
15680;BMP180;15488;48.114;11.532;2022-07-12T02:07:42;96009.00;;;23.90
15680;BMP180;15488;48.114;11.532;2022-07-12T02:10:10;96005.00;;;23.90
15680;BMP180;15488;48.114;11.532;2022-07-12T02:12:38;96003.00;;;23.80
15680;BMP180;15488;48.114;11.532;2022-07-12T02:15:08;95999.00;;;23.80
15680;BMP180;15488;48.114;11.532;2022-07-12T02:17:38;95999.00;;;23.80
15680;BMP180;15488;48.114;11.532;2022-07-12T02:20:06;96003.00;;;23.80
15680;BMP180;15488;48.114;11.532;2022-07-12T02:22:37;95999.00;;;23.80
15680;BMP180;15488;48.114;11.532;2022-07-12T02:25:05;95999.00;;;23.70
15680;BMP180;15488;48.114;11.532;2022-07-12T02:27:33;95991.00;;;23.70
15680;BMP180;15488;48.114;11.532;2022-07-12T02:30:01;95988.00;;;23.70
15680;BMP180;15488;48.114;11.532;2022-07-12T02:32:30;95989.00;;;23.60
15680;BMP180;15488;48.114;11.532;2022-07-12T02:34:57;95892.00;;;23.60
15680;BMP180;15488;48.114;11.532;2022-07-12T02:37:25;95995.00;;;23.60
15680;BMP180;15488;48.114;11.532;2022-07-12T02:39:52;96008.00;;;23.60
15680;BMP180;15488;48.114;11.532;2022-07-12T02:42:40;95997.00;;;23.60
15680;BMP180;15488;48.114;11.532;2022-07-12T02:45:10;96005.00;;;23.50
15680;BMP180;15488;48.114;11.532;2022-07-12T02:47:41;96004.00;;;23.50
15680;BMP180;15488;48.114;11.532;2022-07-12T02:50:08;95999.00;;;23.50
15680;BMP180;15488;48.114;11.532;2022-07-12T02:52:37;96005.00;;;23.40
15680;BMP180;15488;48.114;11.532;2022-07-12T02:55:05;96003.00;;;23.30
15680;BMP180;15488;48.114;11.532;2022-07-12T02:57:32;96004.00;;;23.30
15680;BMP180;15488;48.114;11.532;2022-07-12T03:00:00;96004.00;;;23.30
15680;BMP180;15488;48.114;11.532;2022-07-12T03:02:27;95999.00;;;23.30
15680;BMP180;15488;48.114;11.532;2022-07-12T03:04:57;95999.00;;;23.30
15680;BMP180;15488;48.114;11.532;2022-07-12T03:07:24;96003.00;;;23.20
15680;BMP180;15488;48.114;11.532;2022-07-12T03:09:52;96001.00;;;23.20
15680;BMP180;15488;48.114;11.532;2022-07-12T03:12:19;96014.00;;;23.20
15680;BMP180;15488;48.114;11.532;2022-07-12T03:14:47;96008.00;;;23.10
15680;BMP180;15488;48.114;11.532;2022-07-12T03:17:14;96013.00;;;23.10
15680;BMP180;15488;48.114;11.532;2022-07-12T03:19:42;96021.00;;;23.10
15680;BMP180;15488;48.114;11.532;2022-07-12T03:22:10;96006.00;;;23.00
15680;BMP180;15488;48.114;11.532;2022-07-12T03:24:38;96004.00;;;23.00
15680;BMP180;15488;48.114;11.532;2022-07-12T03:27:06;96003.00;;;23.00
15680;BMP180;15488;48.114;11.532;2022-07-12T03:29:33;96009.00;;;23.00
15680;BMP180;15488;48.114;11.532;2022-07-12T03:32:01;96005.00;;;23.00
15680;BMP180;15488;48.114;11.532;2022-07-12T03:34:28;96004.00;;;22.90
15680;BMP180;15488;48.114;11.532;2022-07-12T03:36:56;96010.00;;;22.90
15680;BMP180;15488;48.114;11.532;2022-07-12T03:39:28;96011.00;;;22.90
15680;BMP180;15488;48.114;11.532;2022-07-12T03:41:55;96012.00;;;22.90
15680;BMP180;15488;48.114;11.532;2022-07-12T03:44:23;96008.00;;;22.90
15680;BMP180;15488;48.114;11.532;2022-07-12T03:46:51;96012.00;;;22.90
15680;BMP180;15488;48.114;11.532;2022-07-12T03:49:18;96014.00;;;22.90
15680;BMP180;15488;48.114;11.532;2022-07-12T03:51:46;96016.00;;;22.90
15680;BMP180;15488;48.114;11.532;2022-07-12T03:54:13;96017.00;;;22.90
15680;BMP180;15488;48.114;11.532;2022-07-12T03:56:42;96045.00;;;22.80
15680;BMP180;15488;48.114;11.532;2022-07-12T03:59:27;96023.00;;;22.90
15680;BMP180;15488;48.114;11.532;2022-07-12T04:01:54;96023.00;;;22.90
15680;BMP180;15488;48.114;11.532;2022-07-12T04:04:22;96032.00;;;22.90
15680;BMP180;15488;48.114;11.532;2022-07-12T04:06:50;96026.00;;;22.80
15680;BMP180;15488;48.114;11.532;2022-07-12T04:09:17;96038.00;;;22.80
15680;BMP180;15488;48.114;11.532;2022-07-12T04:11:46;96036.00;;;22.80
15680;BMP180;15488;48.114;11.532;2022-07-12T04:14:14;96032.00;;;22.80
15680;BMP180;15488;48.114;11.532;2022-07-12T04:16:42;96039.00;;;22.80
15680;BMP180;15488;48.114;11.532;2022-07-12T04:19:10;96040.00;;;22.80
15680;BMP180;15488;48.114;11.532;2022-07-12T04:21:37;96036.00;;;22.80
15680;BMP180;15488;48.114;11.532;2022-07-12T04:24:06;96037.00;;;22.80
15680;BMP180;15488;48.114;11.532;2022-07-12T04:26:36;96042.00;;;22.80
15680;BMP180;15488;48.114;11.532;2022-07-12T04:29:05;96032.00;;;22.80
15680;BMP180;15488;48.114;11.532;2022-07-12T04:31:32;96029.00;;;22.80
15680;BMP180;15488;48.114;11.532;2022-07-12T04:34:00;96024.00;;;22.80
15680;BMP180;15488;48.114;11.532;2022-07-12T04:36:27;96032.00;;;22.80
15680;BMP180;15488;48.114;11.532;2022-07-12T04:38:55;96033.00;;;22.80
15680;BMP180;15488;48.114;11.532;2022-07-12T04:41:25;96041.00;;;22.80
15680;BMP180;15488;48.114;11.532;2022-07-12T04:43:56;96027.00;;;22.80
15680;BMP180;15488;48.114;11.532;2022-07-12T04:46:25;96033.00;;;22.90
15680;BMP180;15488;48.114;11.532;2022-07-12T04:48:54;96035.00;;;22.80
15680;BMP180;15488;48.114;11.532;2022-07-12T04:51:22;96031.00;;;22.90
15680;BMP180;15488;48.114;11.532;2022-07-12T04:53:49;96029.00;;;22.90
15680;BMP180;15488;48.114;11.532;2022-07-12T04:56:17;96028.00;;;22.60
15680;BMP180;15488;48.114;11.532;2022-07-12T04:58:44;96036.00;;;22.90
15680;BMP180;15488;48.114;11.532;2022-07-12T05:01:12;96041.00;;;22.90
15680;BMP180;15488;48.114;11.532;2022-07-12T05:03:41;96039.00;;;22.90
15680;BMP180;15488;48.114;11.532;2022-07-12T05:06:09;96048.00;;;23.00
15680;BMP180;15488;48.114;11.532;2022-07-12T05:08:38;96041.00;;;23.00
15680;BMP180;15488;48.114;11.532;2022-07-12T05:11:06;96041.00;;;23.00
15680;BMP180;15488;48.114;11.532;2022-07-12T05:13:33;96044.00;;;23.10
15680;BMP180;15488;48.114;11.532;2022-07-12T05:16:03;96055.00;;;23.10
15680;BMP180;15488;48.114;11.532;2022-07-12T05:18:31;96054.00;;;23.10
15680;BMP180;15488;48.114;11.532;2022-07-12T05:20:59;96053.00;;;23.10
15680;BMP180;15488;48.114;11.532;2022-07-12T05:23:27;96045.00;;;23.10
15680;BMP180;15488;48.114;11.532;2022-07-12T05:25:55;96048.00;;;23.20
15680;BMP180;15488;48.114;11.532;2022-07-12T05:28:22;96045.00;;;23.20
15680;BMP180;15488;48.114;11.532;2022-07-12T05:30:50;96046.00;;;23.30
15680;BMP180;15488;48.114;11.532;2022-07-12T05:33:17;96050.00;;;23.30
15680;BMP180;15488;48.114;11.532;2022-07-12T05:35:45;96050.00;;;23.30
15680;BMP180;15488;48.114;11.532;2022-07-12T05:38:16;96059.00;;;23.40
15680;BMP180;15488;48.114;11.532;2022-07-12T05:40:44;96057.00;;;23.40
15680;BMP180;15488;48.114;11.532;2022-07-12T05:43:11;96057.00;;;23.50
15680;BMP180;15488;48.114;11.532;2022-07-12T05:45:40;96066.00;;;23.60
15680;BMP180;15488;48.114;11.532;2022-07-12T05:48:10;96063.00;;;23.60
15680;BMP180;15488;48.114;11.532;2022-07-12T05:50:38;96064.00;;;23.60
15680;BMP180;15488;48.114;11.532;2022-07-12T05:53:05;96067.00;;;23.60
15680;BMP180;15488;48.114;11.532;2022-07-12T05:55:53;96076.00;;;23.60
15680;BMP180;15488;48.114;11.532;2022-07-12T05:58:21;96073.00;;;23.70
15680;BMP180;15488;48.114;11.532;2022-07-12T06:00:48;96083.00;;;23.70
15680;BMP180;15488;48.114;11.532;2022-07-12T06:03:16;96079.00;;;23.80
15680;BMP180;15488;48.114;11.532;2022-07-12T06:05:44;96082.00;;;23.80
15680;BMP180;15488;48.114;11.532;2022-07-12T06:08:12;96090.00;;;23.80
15680;BMP180;15488;48.114;11.532;2022-07-12T06:10:39;96092.00;;;23.90
15680;BMP180;15488;48.114;11.532;2022-07-12T06:13:08;96090.00;;;23.90
15680;BMP180;15488;48.114;11.532;2022-07-12T06:15:36;96091.00;;;23.90
15680;BMP180;15488;48.114;11.532;2022-07-12T06:18:04;96085.00;;;23.90
15680;BMP180;15488;48.114;11.532;2022-07-12T06:20:32;96084.00;;;24.00
15680;BMP180;15488;48.114;11.532;2022-07-12T06:23:00;96092.00;;;24.00
15680;BMP180;15488;48.114;11.532;2022-07-12T06:25:27;96091.00;;;24.10
15680;BMP180;15488;48.114;11.532;2022-07-12T06:27:55;96095.00;;;24.10
15680;BMP180;15488;48.114;11.532;2022-07-12T06:30:24;96085.00;;;24.10
15680;BMP180;15488;48.114;11.532;2022-07-12T06:32:51;96087.00;;;24.20
15680;BMP180;15488;48.114;11.532;2022-07-12T06:35:19;96082.00;;;24.20
15680;BMP180;15488;48.114;11.532;2022-07-12T06:37:46;96088.00;;;24.30
15680;BMP180;15488;48.114;11.532;2022-07-12T06:40:14;96091.00;;;24.30
15680;BMP180;15488;48.114;11.532;2022-07-12T06:42:43;96094.00;;;24.40
15680;BMP180;15488;48.114;11.532;2022-07-12T06:45:11;96097.00;;;24.40
15680;BMP180;15488;48.114;11.532;2022-07-12T06:47:40;96096.00;;;24.40
15680;BMP180;15488;48.114;11.532;2022-07-12T06:50:08;96089.00;;;24.40
15680;BMP180;15488;48.114;11.532;2022-07-12T06:52:36;96087.00;;;24.50
15680;BMP180;15488;48.114;11.532;2022-07-12T06:55:04;96085.00;;;24.40
15680;BMP180;15488;48.114;11.532;2022-07-12T06:57:31;96081.00;;;24.50
15680;BMP180;15488;48.114;11.532;2022-07-12T06:59:59;96087.00;;;24.50
15680;BMP180;15488;48.114;11.532;2022-07-12T07:02:27;96087.00;;;24.60
15680;BMP180;15488;48.114;11.532;2022-07-12T07:04:56;96085.00;;;24.60
15680;BMP180;15488;48.114;11.532;2022-07-12T07:07:23;96086.00;;;24.70
15680;BMP180;15488;48.114;11.532;2022-07-12T07:09:51;96088.00;;;24.70
15680;BMP180;15488;48.114;11.532;2022-07-12T07:12:18;96089.00;;;24.80
15680;BMP180;15488;48.114;11.532;2022-07-12T07:14:46;96092.00;;;24.80
15680;BMP180;15488;48.114;11.532;2022-07-12T07:17:18;96085.00;;;24.60
15680;BMP180;15488;48.114;11.532;2022-07-12T07:19:46;96093.00;;;24.90
15680;BMP180;15488;48.114;11.532;2022-07-12T07:22:15;96091.00;;;24.90
15680;BMP180;15488;48.114;11.532;2022-07-12T07:24:43;96090.00;;;25.00
15680;BMP180;15488;48.114;11.532;2022-07-12T07:27:10;96086.00;;;25.00
15680;BMP180;15488;48.114;11.532;2022-07-12T07:29:37;96095.00;;;25.00
15680;BMP180;15488;48.114;11.532;2022-07-12T07:32:22;96095.00;;;25.00
15680;BMP180;15488;48.114;11.532;2022-07-12T07:34:50;96097.00;;;25.00
15680;BMP180;15488;48.114;11.532;2022-07-12T07:37:19;96093.00;;;25.10
15680;BMP180;15488;48.114;11.532;2022-07-12T07:39:47;96091.00;;;25.10
15680;BMP180;15488;48.114;11.532;2022-07-12T07:42:16;96099.00;;;25.20
15680;BMP180;15488;48.114;11.532;2022-07-12T07:44:43;96091.00;;;25.20
15680;BMP180;15488;48.114;11.532;2022-07-12T07:47:11;96099.00;;;25.20
15680;BMP180;15488;48.114;11.532;2022-07-12T07:49:38;96098.00;;;25.30
15680;BMP180;15488;48.114;11.532;2022-07-12T07:52:06;96087.00;;;25.30
15680;BMP180;15488;48.114;11.532;2022-07-12T07:54:35;96105.00;;;25.30
15680;BMP180;15488;48.114;11.532;2022-07-12T07:57:03;96100.00;;;25.40
15680;BMP180;15488;48.114;11.532;2022-07-12T07:59:31;96094.00;;;25.40
15680;BMP180;15488;48.114;11.532;2022-07-12T08:01:58;96102.00;;;25.40
15680;BMP180;15488;48.114;11.532;2022-07-12T08:04:25;96096.00;;;25.50
15680;BMP180;15488;48.114;11.532;2022-07-12T08:06:53;96099.00;;;25.50
15680;BMP180;15488;48.114;11.532;2022-07-12T08:09:22;96101.00;;;25.50
15680;BMP180;15488;48.114;11.532;2022-07-12T08:11:51;96098.00;;;25.50
15680;BMP180;15488;48.114;11.532;2022-07-12T08:14:19;96102.00;;;25.50
15680;BMP180;15488;48.114;11.532;2022-07-12T08:16:47;96102.00;;;25.60
15680;BMP180;15488;48.114;11.532;2022-07-12T08:19:14;96098.00;;;25.60
15680;BMP180;15488;48.114;11.532;2022-07-12T08:21:41;96101.00;;;25.60
15680;BMP180;15488;48.114;11.532;2022-07-12T08:24:09;96102.00;;;25.60
15680;BMP180;15488;48.114;11.532;2022-07-12T08:26:37;96108.00;;;25.60
15680;BMP180;15488;48.114;11.532;2022-07-12T08:29:07;96102.00;;;25.60
15680;BMP180;15488;48.114;11.532;2022-07-12T08:31:34;96110.00;;;25.60
15680;BMP180;15488;48.114;11.532;2022-07-12T08:34:04;96105.00;;;25.70
15680;BMP180;15488;48.114;11.532;2022-07-12T08:36:32;96107.00;;;25.60
15680;BMP180;15488;48.114;11.532;2022-07-12T08:38:59;96109.00;;;25.60
15680;BMP180;15488;48.114;11.532;2022-07-12T08:41:27;96107.00;;;25.60
15680;BMP180;15488;48.114;11.532;2022-07-12T08:43:55;96111.00;;;25.70
15680;BMP180;15488;48.114;11.532;2022-07-12T08:46:24;96118.00;;;25.70
15680;BMP180;15488;48.114;11.532;2022-07-12T08:48:51;96112.00;;;25.70
15680;BMP180;15488;48.114;11.532;2022-07-12T08:51:20;96118.00;;;25.70
15680;BMP180;15488;48.114;11.532;2022-07-12T08:53:50;96124.00;;;25.70
15680;BMP180;15488;48.114;11.532;2022-07-12T08:56:32;96116.00;;;25.80
15680;BMP180;15488;48.114;11.532;2022-07-12T08:59:13;96114.00;;;25.80
15680;BMP180;15488;48.114;11.532;2022-07-12T09:01:48;96112.00;;;25.80
15680;BMP180;15488;48.114;11.532;2022-07-12T09:04:18;96113.00;;;25.80
15680;BMP180;15488;48.114;11.532;2022-07-12T09:06:46;96130.00;;;25.80
15680;BMP180;15488;48.114;11.532;2022-07-12T09:09:26;96118.00;;;25.80
15680;BMP180;15488;48.114;11.532;2022-07-12T09:11:54;96120.00;;;25.90
15680;BMP180;15488;48.114;11.532;2022-07-12T09:14:22;96118.00;;;25.90
15680;BMP180;15488;48.114;11.532;2022-07-12T09:17:02;96127.00;;;26.00
15680;BMP180;15488;48.114;11.532;2022-07-12T09:19:31;96127.00;;;26.00
15680;BMP180;15488;48.114;11.532;2022-07-12T09:21:59;96120.00;;;25.90
15680;BMP180;15488;48.114;11.532;2022-07-12T09:24:27;96129.00;;;25.90
15680;BMP180;15488;48.114;11.532;2022-07-12T09:26:59;96140.00;;;25.90
15680;BMP180;15488;48.114;11.532;2022-07-12T09:29:27;96133.00;;;25.90
15680;BMP180;15488;48.114;11.532;2022-07-12T09:31:54;96146.00;;;26.00
15680;BMP180;15488;48.114;11.532;2022-07-12T09:34:41;96126.00;;;26.00
15680;BMP180;15488;48.114;11.532;2022-07-12T09:37:26;96138.00;;;26.10
15680;BMP180;15488;48.114;11.532;2022-07-12T09:39:54;96134.00;;;26.10
15680;BMP180;15488;48.114;11.532;2022-07-12T09:42:22;96132.00;;;26.10
15680;BMP180;15488;48.114;11.532;2022-07-12T09:44:51;96138.00;;;26.10
15680;BMP180;15488;48.114;11.532;2022-07-12T09:47:20;96152.00;;;26.10
15680;BMP180;15488;48.114;11.532;2022-07-12T09:49:50;96142.00;;;26.10
15680;BMP180;15488;48.114;11.532;2022-07-12T09:52:21;96133.00;;;26.20
15680;BMP180;15488;48.114;11.532;2022-07-12T09:54:51;96141.00;;;26.20
15680;BMP180;15488;48.114;11.532;2022-07-12T09:57:22;96142.00;;;26.30
15680;BMP180;15488;48.114;11.532;2022-07-12T09:59:53;96147.00;;;26.30
15680;BMP180;15488;48.114;11.532;2022-07-12T10:02:22;96143.00;;;26.30
15680;BMP180;15488;48.114;11.532;2022-07-12T10:04:53;96153.00;;;26.40
15680;BMP180;15488;48.114;11.532;2022-07-12T10:07:21;96142.00;;;26.40
15680;BMP180;15488;48.114;11.532;2022-07-12T10:09:51;96147.00;;;26.40
15680;BMP180;15488;48.114;11.532;2022-07-12T10:12:21;96146.00;;;26.40
15680;BMP180;15488;48.114;11.532;2022-07-12T10:14:59;96149.00;;;26.50
15680;BMP180;15488;48.114;11.532;2022-07-12T10:17:28;96151.00;;;26.60
15680;BMP180;15488;48.114;11.532;2022-07-12T10:23:30;96149.00;;;26.60
15680;BMP180;15488;48.114;11.532;2022-07-12T10:26:01;96146.00;;;26.70
15680;BMP180;15488;48.114;11.532;2022-07-12T10:28:54;96150.00;;;26.80
15680;BMP180;15488;48.114;11.532;2022-07-12T10:31:24;96150.00;;;26.80
15680;BMP180;15488;48.114;11.532;2022-07-12T10:34:13;96149.00;;;26.80
15680;BMP180;15488;48.114;11.532;2022-07-12T10:37:08;96139.00;;;26.80
15680;BMP180;15488;48.114;11.532;2022-07-12T10:39:38;96145.00;;;26.80
15680;BMP180;15488;48.114;11.532;2022-07-12T10:42:16;96149.00;;;26.90
15680;BMP180;15488;48.114;11.532;2022-07-12T10:44:46;96150.00;;;26.90
15680;BMP180;15488;48.114;11.532;2022-07-12T10:47:15;96151.00;;;26.90
15680;BMP180;15488;48.114;11.532;2022-07-12T10:49:48;96145.00;;;26.90
15680;BMP180;15488;48.114;11.532;2022-07-12T10:52:25;96152.00;;;27.00
15680;BMP180;15488;48.114;11.532;2022-07-12T10:55:19;96140.00;;;27.10
15680;BMP180;15488;48.114;11.532;2022-07-12T10:57:48;96140.00;;;27.10
15680;BMP180;15488;48.114;11.532;2022-07-12T11:00:20;96146.00;;;27.10
15680;BMP180;15488;48.114;11.532;2022-07-12T11:02:49;96146.00;;;27.20
15680;BMP180;15488;48.114;11.532;2022-07-12T11:05:25;96135.00;;;27.20
15680;BMP180;15488;48.114;11.532;2022-07-12T11:07:54;96138.00;;;27.20
15680;BMP180;15488;48.114;11.532;2022-07-12T11:10:23;96149.00;;;27.20
15680;BMP180;15488;48.114;11.532;2022-07-12T11:12:51;96143.00;;;27.30
15680;BMP180;15488;48.114;11.532;2022-07-12T11:15:18;96144.00;;;27.30
15680;BMP180;15488;48.114;11.532;2022-07-12T11:17:49;96149.00;;;27.40
15680;BMP180;15488;48.114;11.532;2022-07-12T11:20:19;96139.00;;;27.50
15680;BMP180;15488;48.114;11.532;2022-07-12T11:22:49;96142.00;;;27.60
15680;BMP180;15488;48.114;11.532;2022-07-12T11:25:17;96139.00;;;27.60
15680;BMP180;15488;48.114;11.532;2022-07-12T11:27:46;96142.00;;;27.70
15680;BMP180;15488;48.114;11.532;2022-07-12T11:30:14;96137.00;;;27.70
15680;BMP180;15488;48.114;11.532;2022-07-12T11:32:44;96130.00;;;27.80
15680;BMP180;15488;48.114;11.532;2022-07-12T11:35:20;96127.00;;;27.90
15680;BMP180;15488;48.114;11.532;2022-07-12T11:37:51;96123.00;;;27.90
15680;BMP180;15488;48.114;11.532;2022-07-12T11:40:23;96124.00;;;27.90
15680;BMP180;15488;48.114;11.532;2022-07-12T11:42:56;96131.00;;;28.00
15680;BMP180;15488;48.114;11.532;2022-07-12T11:45:25;96127.00;;;28.10
15680;BMP180;15488;48.114;11.532;2022-07-12T11:47:53;96126.00;;;28.10
15680;BMP180;15488;48.114;11.532;2022-07-12T11:50:21;96121.00;;;28.20
15680;BMP180;15488;48.114;11.532;2022-07-12T11:52:48;96121.00;;;28.30
15680;BMP180;15488;48.114;11.532;2022-07-12T11:55:16;96128.00;;;28.40
15680;BMP180;15488;48.114;11.532;2022-07-12T11:57:44;96118.00;;;28.40
15680;BMP180;15488;48.114;11.532;2022-07-12T12:00:20;96120.00;;;28.50
15680;BMP180;15488;48.114;11.532;2022-07-12T12:02:52;96123.00;;;28.60
15680;BMP180;15488;48.114;11.532;2022-07-12T12:05:20;96120.00;;;28.70
15680;BMP180;15488;48.114;11.532;2022-07-12T12:07:47;96121.00;;;28.80
15680;BMP180;15488;48.114;11.532;2022-07-12T12:10:16;96117.00;;;28.90
15680;BMP180;15488;48.114;11.532;2022-07-12T12:12:45;96110.00;;;29.10
15680;BMP180;15488;48.114;11.532;2022-07-12T12:15:14;96114.00;;;29.30
15680;BMP180;15488;48.114;11.532;2022-07-12T12:17:52;96110.00;;;29.40
15680;BMP180;15488;48.114;11.532;2022-07-12T12:20:21;96112.00;;;29.40
15680;BMP180;15488;48.114;11.532;2022-07-12T12:22:51;96107.00;;;29.40
15680;BMP180;15488;48.114;11.532;2022-07-12T12:25:21;96113.00;;;29.60
15680;BMP180;15488;48.114;11.532;2022-07-12T12:27:53;96117.00;;;29.70
15680;BMP180;15488;48.114;11.532;2022-07-12T12:30:21;96110.00;;;29.80
15680;BMP180;15488;48.114;11.532;2022-07-12T12:32:52;96123.00;;;29.90
15680;BMP180;15488;48.114;11.532;2022-07-12T12:35:22;96112.00;;;30.00
15680;BMP180;15488;48.114;11.532;2022-07-12T12:37:55;96114.00;;;30.10
15680;BMP180;15488;48.114;11.532;2022-07-12T12:40:25;96116.00;;;30.30
15680;BMP180;15488;48.114;11.532;2022-07-12T12:43:05;96114.00;;;30.50
15680;BMP180;15488;48.114;11.532;2022-07-12T12:45:33;96120.00;;;30.60
15680;BMP180;15488;48.114;11.532;2022-07-12T12:48:04;96108.00;;;30.70
15680;BMP180;15488;48.114;11.532;2022-07-12T12:50:43;96110.00;;;30.90
15680;BMP180;15488;48.114;11.532;2022-07-12T12:53:13;96105.00;;;31.10
15680;BMP180;15488;48.114;11.532;2022-07-12T12:55:41;96028.00;;;31.20
15680;BMP180;15488;48.114;11.532;2022-07-12T12:58:09;96105.00;;;31.30
15680;BMP180;15488;48.114;11.532;2022-07-12T13:00:40;96106.00;;;31.50
15680;BMP180;15488;48.114;11.532;2022-07-12T13:03:11;96113.00;;;31.60
15680;BMP180;15488;48.114;11.532;2022-07-12T13:05:39;96091.00;;;31.80
15680;BMP180;15488;48.114;11.532;2022-07-12T13:08:08;96096.00;;;31.90
15680;BMP180;15488;48.114;11.532;2022-07-12T13:10:36;96096.00;;;32.10
15680;BMP180;15488;48.114;11.532;2022-07-12T13:13:04;96099.00;;;32.20
15680;BMP180;15488;48.114;11.532;2022-07-12T13:15:32;96097.00;;;32.30
15680;BMP180;15488;48.114;11.532;2022-07-12T13:18:01;96099.00;;;32.40
15680;BMP180;15488;48.114;11.532;2022-07-12T13:20:30;96088.00;;;32.60
15680;BMP180;15488;48.114;11.532;2022-07-12T13:22:58;96093.00;;;32.70
15680;BMP180;15488;48.114;11.532;2022-07-12T13:25:26;96097.00;;;32.80
15680;BMP180;15488;48.114;11.532;2022-07-12T13:27:54;96096.00;;;32.90
15680;BMP180;15488;48.114;11.532;2022-07-12T13:30:22;96104.00;;;33.00
15680;BMP180;15488;48.114;11.532;2022-07-12T13:32:49;96101.00;;;33.00
15680;BMP180;15488;48.114;11.532;2022-07-12T13:35:17;96099.00;;;33.10
15680;BMP180;15488;48.114;11.532;2022-07-12T13:37:46;96101.00;;;33.20
15680;BMP180;15488;48.114;11.532;2022-07-12T13:40:13;96100.00;;;33.10
15680;BMP180;15488;48.114;11.532;2022-07-12T13:42:44;96103.00;;;33.40
15680;BMP180;15488;48.114;11.532;2022-07-12T13:45:13;96105.00;;;33.60
15680;BMP180;15488;48.114;11.532;2022-07-12T13:47:42;96113.00;;;33.70
15680;BMP180;15488;48.114;11.532;2022-07-12T13:50:11;96110.00;;;33.60
15680;BMP180;15488;48.114;11.532;2022-07-12T13:52:39;96113.00;;;33.80
15680;BMP180;15488;48.114;11.532;2022-07-12T13:55:09;96110.00;;;33.80
15680;BMP180;15488;48.114;11.532;2022-07-12T13:57:38;96108.00;;;33.90
15680;BMP180;15488;48.114;11.532;2022-07-12T14:00:08;96119.00;;;34.00
15680;BMP180;15488;48.114;11.532;2022-07-12T14:02:37;96113.00;;;34.20
15680;BMP180;15488;48.114;11.532;2022-07-12T14:05:05;96104.00;;;34.20
15680;BMP180;15488;48.114;11.532;2022-07-12T14:07:34;96110.00;;;34.00
15680;BMP180;15488;48.114;11.532;2022-07-12T14:10:02;96116.00;;;34.20
15680;BMP180;15488;48.114;11.532;2022-07-12T14:12:31;96116.00;;;34.20